KCDH/CDH METAR and TAF weather

Enter ICAO airport designator
Station Type Date Time Source
KCDH METAR 2021/01/17 19:35 UTC NOAA

KCDH 171935Z AUTO 32008G13KT 10SM CLR 14/M06 A3000 RMK AO2


Station Type Date Time Source
KCDH Decoded METAR 2021/01/17 19:35 UTC NOAA

Camden / Harrell Field, AR, United States (KCDH) 33-37N 092-46W
Jan 17, 2021 - 02:35 PM EST / 2021.01.17 1935 UTC
Wind: from the NW (320 degrees) at 9 MPH (8 KT) gusting to 15 MPH (13 KT):0
Visibility: 10 mile(s):0
Sky conditions: clear
Temperature: 57 F (14 C)
Dew Point: 21 F (-6 C)
Relative Humidity: 24%
Pressure (altimeter): 30 in. Hg (1015 hPa)
ob: KCDH 171935Z AUTO 32008G13KT 10SM CLR 14/M06 A3000 RMK AO2
cycle: 19

Station Type Date Time Source
KCDH TAF UTC NOAA

Error!

Example: see airport list